Weather observations for the past three days for
Sutton, Braxton County Airport
Metric (Imperial)
Date Time (edt) Wind (kph) Vis. (km) Weather Sky Cond. Temperature (ºC) Relative Humidity Wind Chill (°C) Heat Index (°C) Pressure Precipitation (cm)
Air Dwpt 6 hour altimeter (cm) sea level (mb) 1 hr 3 hr 6 hr
Max. Min.
08 04:15 Calm 4.02 Fog/Mist CLR 0.9 0.9 100% 76.15 0.0
08 03:55 Calm 3.22 Fog/Mist CLR 1.3 1.3 100% 76.15 0.0
08 03:35 Calm 3.22 Fog/Mist CLR 1.7 1.7 100% 76.15 0.0
08 03:15 Calm 1.61 Fog/Mist CLR 1.5 1.5 100% 76.15 0.0
08 02:55 Calm 3.22 Fog/Mist CLR 1.4 1.4 100% 76.15 0.0
08 02:35 Calm 4.02 Fog/Mist CLR 2.1 2.1 100% 76.15 0.0
08 02:15 Calm 4.02 Fog/Mist CLR 2.6 2.6 100% 76.15 0.0
08 01:55 Calm 4.02 Fog/Mist CLR 2.2 2.2 13.8 1.7 100% 76.15 0.0
08 01:35 Calm 4.02 Fog/Mist CLR 2.5 2.3 99% 76.15 0.0
08 01:15 Calm 4.02 Fog/Mist CLR 2.4 2.2 99% 76.17 0.0
08 00:55 Calm 4.02 Fog/Mist CLR 2.4 2 97% 76.15 0.0
08 00:35 Calm 4.83 Fog/Mist CLR 2.5 1.8 95% 76.15 0.0
08 00:15 Calm 4.02 Fog/Mist CLR 2.6 1.8 95% 76.15 0.0
07 23:55 Calm 4.02 Fog/Mist CLR 3.4 2.2 92% 76.12 0.0
07 23:35 Calm 4.83 Fog/Mist CLR 3.7 1.8 88% 76.12 0.0
07 23:15 Calm 4.02 Fair with Haze CLR 4.5 2 84% 76.1 0.0
07 22:55 Calm 4.83 Fair with Haze CLR 5.7 1.6 75% 76.1 0.0
07 22:15 Calm 6.44 Fair with Haze CLR 6.1 1.9 75% 76.07 0.0
07 21:55 Calm 8.05 Fair with Haze CLR 7.4 1.5 67% 76.05 0.0
07 21:35 Vrbl 6 9.66 Fair with Haze CLR 8 1.7 65% 76.02 0.0
07 21:15 Calm 9.66 Fair with Haze CLR 8.4 2.1 65% 76 0.0
07 20:55 Calm 11.27 Fair CLR 12.3 -0.4 42% 75.97 0.0
07 20:35 Vrbl 6 8.05 Fair with Haze CLR 12.5 0.3 43% 75.97 0.0
07 20:15 W 6 9.66 Fair with Haze CLR 13.1 -0.1 41% 75.95 0.0
07 19:55 Vrbl 7 12.87 A Few Clouds FEW070 14.1 -0.4 17 14.1 37% 75.92 0.0
07 19:35 Vrbl 11 14.48 Partly Cloudy SCT070 14.5 -0.1 37% 75.92 0.0
07 19:15 Vrbl 7 14.48 Mostly Cloudy BKN070 14.9 0.6 38% 75.92 0.0
07 18:55 NW 9 14.48 Partly Cloudy SCT070 14.7 0.4 38% 75.9 0.0
07 18:35 Calm 14.48 Mostly Cloudy BKN070 15.5 0.9 37% 75.9 0.0
07 18:15 Vrbl 9 14.48 Mostly Cloudy BKN065 15.5 1.6 39% 75.87 0.0
07 17:55 W 15 16.09 Partly Cloudy SCT075 16.1 0.9 36% 75.84 0.0
07 17:35 W 13 14.48 Partly Cloudy SCT070 15.3 1.4 39% 75.84 0.0
07 17:15 W 13 16.09 Partly Cloudy SCT065 16.1 1.8 38% 75.82 0.0
07 16:55 Vrbl 9 14.48 A Few Clouds FEW070 15.6 2 40% 75.82 0.0
07 16:35 W 15 16.09 A Few Clouds FEW060 16.5 2.2 38% 75.82 0.0
07 16:15 Vrbl 7 16.09 Partly Cloudy SCT065 16.9 2.2 37% 75.82 0.0
07 15:55 Vrbl 9 16.09 Mostly Cloudy BKN060 BKN070 15.2 2.7 43% 75.84 0.0
07 15:35 Vrbl 9 16.09 Partly Cloudy SCT055 15.6 3.1 43% 75.87 0.0
07 15:15 Vrbl 9 16.09 Mostly Cloudy BKN055 14.8 3.6 47% 75.87 0.0
07 14:55 Vrbl 11 16.09 Mostly Cloudy BKN050 15.5 3.6 45% 75.87 0.0
07 14:35 Vrbl 11 14.48 Partly Cloudy SCT055 15.7 4.5 48% 75.9 0.0
07 14:15 W 13 16.09 Mostly Cloudy BKN046 14.8 4.3 50% 75.9 0.0
07 13:50 Vrbl 6 16.09 Mostly Cloudy BKN046 14.7 5.2 53% 75.92 0.0
07 13:35 Vrbl 11 14.48 Partly Cloudy SCT047 15.4 4.6 49% 75.92 0.0
07 13:15 Calm 16.09 Mostly Cloudy BKN043 BKN050 14.3 5 54% 75.92 0.0
07 12:55 Calm 12.87 Mostly Cloudy BKN042 13.9 4.5 53% 75.95 0.0
07 12:35 Calm 14.48 Mostly Cloudy BKN040 13.3 4.8 57% 75.97 0.0
07 12:15 Calm 14.48 Overcast OVC042 13.1 4 54% 76 0.0
07 11:55 Calm 14.48 Partly Cloudy SCT042 13 3.8 54% 76 0.0
07 11:35 NW 11 16.09 A Few Clouds FEW050 12.9 4 55% 76 0.0
07 11:15 Vrbl 6 12.87 Mostly Cloudy FEW032 BKN050 12.2 4.1 58% 76.02 0.0
07 10:55 Calm 14.48 Overcast FEW030 OVC050 11.8 4.2 60% 76.02 0.0
07 10:35 Calm 14.48 Overcast FEW027 OVC055 11.3 5.3 67% 76.02 0.0
07 10:15 Calm 14.48 Overcast OVC055 11.1 5.5 69% 76.05 0.0
07 09:55 Calm 16.09 Overcast FEW016 OVC050 10.6 6.9 78% 76.07 0.0
07 09:15 Calm 11.27 Overcast FEW012 OVC050 10.1 8 87% 76.07 0.0
07 08:55 Calm 9.66 Fog/Mist FEW007 OVC048 9.8 8.4 91% 76.07 0.0
07 08:35 Calm 9.66 Fog/Mist FEW007 OVC048 9.7 8.5 92% 76.07 0.0
07 08:15 Calm 9.66 Fog/Mist SCT006 OVC048 9.6 9 96% 76.07 0.0
07 07:55 Calm 8.05 Fog/Mist FEW006 OVC048 9.3 9.2 10.1 8.8 99% 76.07 0.0
07 07:35 Calm 8.05 Fog/Mist SCT005 BKN047 OVC055 9.3 9.3 100% 76.07 0.0
07 07:15 Calm 8.05 Fog/Mist SCT005 OVC055 9.2 9.2 100% 76.05 0.0
07 06:55 Calm 8.05 Fog/Mist FEW005 OVC050 9.1 9.1 100% 76.02 0.0
07 06:35 Calm 8.05 Fog/Mist OVC050 9 9 100% 76 0.0
07 06:15 Calm 9.66 Fog/Mist FEW005 OVC050 9.1 9.1 100% 76.02 0.0
07 05:55 Calm 11.27 Overcast BKN006 OVC047 9.1 9.1 100% 76.02 0.0
07 05:35 Calm 12.87 Overcast SCT003 OVC046 9.1 9.1 100% 76 0.0
07 05:15 Calm 12.87 Overcast FEW003 OVC041 9.1 9.1 100% 76 0.0
07 04:55 Calm 11.27 Overcast FEW004 OVC036 9 9 100% 75.97 0.0
07 04:35 Calm 12.87 Overcast FEW017 OVC034 9.1 9.1 100% 76.02 0.0
07 04:15 Calm 11.27 Overcast OVC031 9.1 9.1 100% 76.02 0.0
07 03:50 Calm 9.66 Fog/Mist OVC029 9.1 9.1 100% 76 0.0
07 03:35 Calm 9.66 Fog/Mist OVC028 8.9 8.9 100% 76.02 0.0
07 03:15 Calm 4.83 Fog/Mist OVC024 8.9 8.8 99% 76 0.0
07 02:55 Calm 4.83 Fog/Mist OVC023 9.4 8.7 95% 76 0.0
07 02:35 Calm 8.05 Fog/Mist FEW006 OVC022 9.5 8.7 95% 76 0.0
07 02:15 Vrbl 6 4.02 Fog/Mist BKN006 OVC016 9.7 9.4 98% 76 0.0
07 01:55 Calm 0.80 Fog SCT006 OVC022 10.4 10.4 11.9 10.4 100% 76.02 0.0 0.03 0.15
07 01:35 Calm 3.22 Fog/Mist FEW007 BKN022 OVC029 10.4 10.4 100% 76.02 0.0
07 01:15 Calm 2.41 Fog/Mist FEW007 BKN024 OVC032 10.5 10.5 100% 76.02 0.0
07 00:55 Calm 1.21 Light Drizzle Fog/Mist SCT005 OVC027 10.6 10.6 100% 76.02 0.0 0.05
07 00:35 Vrbl 6 1.21 Fog/Mist SCT005 BKN025 OVC031 10.7 10.6 99% 76.02 0.0 0.03
07 00:15 W 6 0.80 Fog OVC024 10.9 10.9 100% 76.02 0.0 0.03
06 23:55 Calm 1.61 Fog/Mist SCT006 OVC026 11.1 11.1 100% 75.97 0.0
06 23:35 Calm 1.61 Fog/Mist SCT005 SCT009 OVC026 11.2 11.2 100% 76 0.0
06 23:15 Calm 1.61 Light Rain Fog/Mist OVC026 11.3 11.2 99% 76 0.0
06 22:55 W 7 4.83 Fog/Mist FEW005 OVC025 11.5 11.5 100% 76.05 0.0 0.03 0.08
06 22:35 Calm 2.41 Fog/Mist FEW014 OVC023 11.4 11.4 100% 75.97 0.0
06 22:15 W 6 9.66 Light Rain Fog/Mist BKN017 OVC025 11.6 11.6 100% 76 0.0
06 21:55 Calm 9.66 Fog/Mist FEW006 OVC020 11.6 11.6 100% 75.97 0.0 0.03
06 21:35 Calm 9.66 Fog/Mist SCT005 OVC022 11.6 11.6 100% 75.95 0.0 0.03
06 21:15 Calm 6.44 Light Rain Fog/Mist SCT004 BKN009 BKN018 OVC023 11.6 11.6 100% 75.95 0.0
06 20:55 Calm 2.41 Light Rain Fog/Mist FEW004 SCT009 BKN025 OVC031 11.7 11.7 100% 75.9 0.0 0.03
06 20:35 Calm 6.44 Light Rain Fog/Mist BKN026 BKN031 OVC043 11.8 11.7 99% 75.92 0.0
06 20:15 Calm 6.44 Fog/Mist BKN028 OVC041 11.8 11.6 99% 75.92 0.0
06 19:55 Calm 9.66 Fog/Mist FEW007 BKN030 OVC042 11.9 11.8 15.3 11.9 99% 75.92 0.0 0.13
06 19:35 Calm 9.66 Fog/Mist FEW009 SCT031 OVC042 12.1 11.9 99% 75.95 0.0
06 19:15 Calm 9.66 Fog/Mist BKN008 OVC012 12.1 11.8 98% 75.92 0.0
06 18:55 Calm 9.66 Fog/Mist BKN007 OVC011 12.2 11.9 98% 75.92 0.0
06 18:35 W 6 6.44 Fog/Mist BKN007 BKN011 OVC026 12.1 11.8 98% 75.95 0.0
06 18:15 Calm 8.05 Fog/Mist FEW008 OVC025 12.1 11.7 97% 75.9 0.0
06 17:55 Calm 3.22 Light Rain Fog/Mist FEW005 SCT015 SCT021 OVC032 12.3 11.8 97% 75.9 0.0 0.05
06 17:35 W 7 2.82 Light Rain Fog/Mist FEW004 BKN015 OVC022 12.4 11.9 97% 75.9 0.0
06 17:15 Vrbl 9 8.05 Fog/Mist BKN016 OVC030 12.6 11.8 95% 75.92 0.0
06 16:55 W 9 2.01 Fog/Mist FEW005 SCT011 BKN022 OVC030 12.8 12.3 97% 75.87 0.0 0.03 0.08
06 16:35 Vrbl 6 4.02 Light Rain Fog/Mist SCT005 BKN011 BKN021 OVC027 12.9 12.4 97% 75.87 0.0
06 16:15 Vrbl 9 9.66 Fog/Mist FEW006 BKN017 BKN023 OVC028 13.2 12.3 94% 75.84 0.0
06 15:55 Vrbl 6 3.22 Light Rain Fog/Mist BKN005 OVC013 13 12.4 96% 75.82 0.0 0.05
06 15:35 Vrbl 6 1.61 Light Rain Fog/Mist OVC005 13 12.4 96% 75.84 0.0 0.03
06 15:15 Calm 4.83 Light Rain Fog/Mist OVC007 13.8 13.1 96% 75.82 0.0 0.03
06 14:55 Vrbl 6 12.87 Overcast OVC008 14.2 13.4 95% 75.79 0.0
06 14:35 Vrbl 6 9.66 Fog/Mist OVC007 14.4 13.6 95% 75.77 0.0
06 14:15 Vrbl 9 11.27 Overcast BKN005 OVC011 15 14.5 97% 75.77 0.0
06 13:55 W 7 1.61 Light Rain Fog/Mist BKN004 OVC011 15.8 15.6 16.2 14.7 99% 75.77 0.0 0.05 0.15
06 13:35 Calm 1.61 Light Rain Fog/Mist BKN005 BKN011 OVC025 15.8 15.5 98% 75.77 0.0 0.03
06 13:15 Vrbl 6 2.41 Fog/Mist SCT006 BKN012 OVC024 15.7 15.4 98% 75.74 0.0 0.03
06 12:55 Vrbl 7 4.02 Light Rain Fog/Mist BKN005 BKN012 OVC020 15.8 15.4 97% 75.77 0.0 0.03
06 12:35 Vrbl 7 3.22 Light Rain Fog/Mist BKN005 OVC010 16 15.5 97% 75.74 0.0
06 12:15 Vrbl 6 9.66 Fog/Mist OVC009 16.2 15.4 95% 75.74 0.0
06 11:55 Vrbl 11 12.87 Overcast BKN006 OVC011 16 15.4 96% 75.74 0.0 0.03
06 11:35 W 11 G 28 6.44 Fog/Mist OVC006 15.9 15.5 97% 75.72 0.0 0.03
06 11:15 Vrbl 9 4.02 Light Rain Fog/Mist BKN005 OVC011 15.9 15.6 98% 75.72 0.0
06 10:55 W 11 3.22 Light Rain Fog/Mist FEW004 OVC018 16 15.3 96% 75.69 0.0 0.03 0.05
06 10:35 Vrbl 9 4.02 Light Rain Fog/Mist OVC020 16 15.2 95% 75.69 0.0
06 10:15 Vrbl 9 6.44 Light Rain Fog/Mist OVC021 16 15.1 94% 75.64 0.0
06 09:55 Calm 8.05 Fog/Mist OVC021 15.7 15.1 96% 75.62 0.0
06 09:35 Calm 4.83 Fog/Mist OVC022 15.4 14.9 97% 75.62 0.0
06 09:15 Calm 9.66 Fog/Mist OVC023 15.3 14.7 96% 75.64 0.0
06 08:55 Calm 4.02 Fog/Mist OVC025 15.1 14.7 97% 75.62 0.0 0.03
06 08:35 Calm 6.44 Light Rain Fog/Mist OVC025 14.9 14.4 97% 75.62 0.0 0.03
06 08:15 Calm 8.05 Light Rain Fog/Mist OVC027 14.8 14.2 96% 75.62 0.0
06 07:55 Calm 2.01 Fog/Mist FEW003 OVC030 14.5 14 18.8 13.6 97% 75.62 0.0 0.1 0.86
06 07:35 Calm 4.83 Light Rain Fog/Mist FEW004 OVC028 14.5 13.8 96% 75.59 0.0 0.08
06 07:15 Calm 4.83 Light Rain Fog/Mist FEW028 OVC033 14.4 13.6 95% 75.57 0.0 0.08
06 06:35 Calm 2.41 Light Rain Fog/Mist SCT039 BKN060 OVC075 13.8 13.8 100% 75.57 0.0 0.2
06 06:15 Calm 2.82 Light Rain Fog/Mist FEW006 BKN043 OVC065 13.7 13.7 100% 75.57 0.0 0.1
06 05:55 Calm 4.02 Rain Fog/Mist FEW005 BKN044 OVC055 14 13.3 96% 75.57 0.0 0.41
06 05:35 Calm 4.83 Light Rain Fog/Mist BKN042 OVC060 14 13.3 96% 75.59 0.0 0.28
06 05:15 Calm 4.83 Rain Fog/Mist BKN041 OVC060 14.6 12.9 90% 75.62 0.0 0.15
06 04:55 Calm 4.02 Light Rain Fog/Mist BKN050 OVC070 14.3 13.4 94% 75.62 0.0 0.05 0.05
06 04:35 Calm 11.27 Light Rain OVC050 14.9 13.2 90% 75.62 0.0
06 04:15 Calm 12.87 Light Rain OVC050 15.4 12.4 82% 75.59 0.0
06 03:55 Calm 11.27 Light Rain OVC055 18.5 9.2 55% 75.59 0.0
06 03:35 Calm 12.87 Light Rain BKN060 OVC090 18.1 9.2 56% 75.57 0.0
06 03:15 Calm 14.48 Overcast BKN065 OVC100 16.8 10 64% 75.57 0.0
06 02:55 Calm 16.09 Overcast BKN070 OVC110 16 10.6 71% 75.59 0.0
06 02:35 Calm 14.48 Overcast BKN110 BKN130 OVC200 16 9.7 66% 75.57 0.0
06 02:15 Calm 16.09 Mostly Cloudy BKN080 BKN100 BKN130 15.7 10.2 70% 75.59 0.0
06 01:55 Calm 16.09 Overcast BKN090 OVC100 15.3 10.9 18.8 15.2 75% 75.62 0.0
06 01:35 Calm 16.09 Overcast BKN090 BKN100 OVC130 15.3 11 76% 75.62 0.0
06 01:15 Calm 16.09 Overcast BKN090 OVC110 16 10.9 72% 75.64 0.0
06 00:55 Calm 16.09 Overcast OVC080 16.5 10.7 69% 75.69 0.0
06 00:35 Calm 12.87 Overcast OVC080 16.5 10.6 68% 75.69 0.0
06 00:15 Calm 14.48 Overcast OVC080 16.7 10.6 67% 75.69 0.0
05 23:55 Calm 11.27 Overcast OVC085 15.9 11.8 77% 75.69 0.0
05 23:35 Calm 11.27 Overcast OVC090 16 11.8 76% 75.67 0.0
05 23:15 Calm 14.48 Overcast OVC090 16.4 11.3 72% 75.67 0.0
05 22:55 Calm 12.87 Overcast OVC090 16.5 11.1 71% 75.67 0.0
05 22:35 Calm 14.48 Overcast OVC090 16.5 11.8 74% 75.69 0.0
05 22:15 Calm 14.48 Overcast OVC095 16.7 11.3 71% 75.69 0.0
05 21:55 Calm 12.87 Overcast OVC095 16.9 11.3 70% 75.69 0.0
05 21:35 Calm 12.87 Overcast OVC100 17.4 10.7 65% 75.69 0.0
05 20:55 Calm 16.09 Overcast BKN100 OVC120 17.2 11.3 68% 75.74 0.0
05 20:35 Calm 16.09 Overcast OVC120 18.8 10 57% 75.74 0.0
05 20:15 Calm 16.09 Overcast BKN130 OVC150 17.3 11.5 69% 75.72 0.0
05 19:55 Calm 16.09 Overcast OVC150 18.3 11.8 24.3 18.3 66% 75.72 0.0
05 19:35 Calm 16.09 Overcast BKN160 OVC180 19.7 10.4 55% 75.69 0.0
05 19:15 Calm 16.09 Overcast BKN160 OVC180 22.2 7.6 39% 75.72 0.0
05 18:55 W 7 16.09 Mostly Cloudy SCT170 BKN200 22.6 7.2 37% 75.72 0.0
05 18:35 Vrbl 7 16.09 Partly Cloudy FEW210 SCT240 23 7 36% 75.72 0.0
05 18:15 Vrbl 7 16.09 Fair CLR 23.5 6.8 34% 75.72 0.0
05 17:55 Vrbl 9 16.09 Fair CLR 23.5 7 35% 75.74 0.0
05 17:35 W 7 16.09 Fair CLR 23.5 7.1 35% 75.74 0.0
05 17:15 Vrbl 11 16.09 A Few Clouds FEW190 23.5 6.8 34% 75.77 0.0
05 16:55 Vrbl 9 16.09 A Few Clouds FEW360 23.7 7.1 35% 75.77 0.0
05 16:35 SW 13 G 30 16.09 A Few Clouds FEW320 23.8 6.5 33% 75.77 0.0
05 16:15 W 11 G 28 16.09 Fair CLR 24.3 7.3 34% 25 75.79 0.0
05 15:55 Vrbl 11 16.09 A Few Clouds FEW370 24 6.4 32% 25 75.82 0.0
05 15:35 SW 11 G 28 16.09 A Few Clouds FEW280 24 7 34% 25 75.82 0.0
05 15:15 W 15 G 31 16.09 Partly Cloudy FEW270 SCT360 23.9 7.2 34% 25 75.82 0.0
05 14:55 SW 13 16.09 Partly Cloudy FEW070 SCT330 SCT360 SCT380 24 7.5 35% 25 75.84 0.0
05 14:35 W 15 16.09 A Few Clouds FEW070 23.9 7.6 35% 25 75.84 0.0
05 14:15 W 7 G 28 16.09 Partly Cloudy FEW260 SCT300 23.8 7.3 35% 75.84 0.0
05 13:55 W 17 G 30 16.09 Partly Cloudy FEW270 SCT370 23.5 7.5 23.6 18.3 36% 75.84 0.0
05 13:35 W 11 G 28 16.09 Partly Cloudy FEW280 SCT360 SCT380 23.5 7.7 36% 75.87 0.0
05 13:15 SW 17 G 30 16.09 A Few Clouds FEW250 23.5 7.5 36% 75.9 0.0
05 12:55 W 19 G 30 16.09 Mostly Cloudy SCT065 BKN280 BKN310 BKN350 23.4 8.1 38% 75.92 0.0
05 12:35 SW 22 G 30 16.09 Mostly Cloudy BKN065 BKN280 23 8.2 39% 75.92 0.0
05 12:15 SW 13 16.09 Mostly Cloudy BKN065 22.9 8.1 39% 75.92 0.0
05 11:55 W 17 G 37 16.09 Partly Cloudy SCT065 22.2 8.1 41% 75.95 0.0
05 11:35 SW 9 G 26 16.09 Partly Cloudy SCT060 SCT330 22.8 8.7 41% 75.95 0.0
05 11:15 W 15 G 31 16.09 Partly Cloudy SCT060 22.4 8.7 42% 75.95 0.0
05 10:50 Vrbl 11 16.09 Fair CLR 22.1 8.4 42% 75.95 0.0
05 10:35 SW 13 16.09 Fair CLR 21.7 7.8 41% 75.95 0.0
05 09:55 W 15 16.09 Mostly Cloudy BKN065 BKN080 21 7.7 42% 75.97 0.0
05 09:40 Vrbl 9 16.09 Mostly Cloudy BKN065 BKN080 20.8 7.9 44% 75.97 0.0
05 09:15 W 15 16.09 A Few Clouds FEW070 20.5 7.8 44% 75.97 0.0
05 08:55 Calm 16.09 Partly Cloudy SCT075 19.8 8.5 48% 75.95 0.0
05 08:35 Calm 16.09 Partly Cloudy SCT070 19.3 8.3 49% 75.97 0.0
05 08:15 Calm 16.09 Mostly Cloudy BKN070 18.6 8 50% 75.97 0.0
05 07:55 Calm 16.09 Mostly Cloudy BKN070 17.4 9 17.8 12.8 58% 75.95 0.0
05 07:35 Calm 14.48 Mostly Cloudy BKN070 17.2 8.7 58% 75.95 0.0
05 07:15 Calm 16.09 Mostly Cloudy BKN070 17.2 8.1 55% 75.95 0.0
05 06:55 Calm 14.48 Mostly Cloudy BKN070 17 7.9 55% 75.92 0.0
05 06:35 Calm 16.09 Overcast OVC070 17.3 7.9 54% 75.92 0.0
05 05:55 Calm 16.09 Overcast OVC070 16.9 8 56% 75.87 0.0
05 05:35 Calm 16.09 Mostly Cloudy BKN070 17 7.8 55% 75.87 0.0
05 05:15 Calm 16.09 A Few Clouds FEW075 14.8 7.7 63% 75.87 0.0
05 04:55 Calm 16.09 A Few Clouds FEW070 14.1 7.7 66% 75.84 0.0
05 04:35 Calm 16.09 A Few Clouds FEW070 13.8 7.7 67% 75.84 0.0
Date Time (edt) Wind (kph) Vis. (km) Weather Sky Cond. Air Dwpt Max. Min. Relative Humidity Wind Chill (°C) Heat Index (°C) altimeter (cm) sea level (mb) 1 hr 3 hr 6 hr
6 hour
Temperature (ºC) Pressure Precipitation (cm)